createdAt,value
2018-06-01T00:00:38.466Z,47.72
2018-06-01T00:01:38.412Z,48.30
2018-06-01T00:02:38.403Z,47.82
2018-06-01T00:03:38.403Z,47.82
2018-06-01T00:04:38.406Z,47.63
2018-06-01T00:05:38.403Z,48.02
2018-06-01T00:06:38.390Z,45.32
2018-06-01T00:07:38.388Z,45.51
2018-06-01T00:08:38.384Z,44.93
2018-06-01T00:09:38.381Z,46.28
2018-06-01T00:10:38.375Z,46.86
2018-06-01T00:11:38.997Z,45.90
2018-06-01T00:12:38.397Z,44.74
2018-06-01T00:13:38.391Z,44.55
2018-06-01T00:14:38.366Z,44.93
2018-06-01T00:15:38.367Z,46.57
2018-06-01T00:16:38.363Z,46.86
2018-06-01T00:17:38.353Z,46.28
2018-06-01T00:18:38.349Z,45.70
2018-06-01T00:19:38.343Z,46.19
2018-06-01T00:20:38.343Z,46.38
2018-06-01T00:21:38.342Z,45.70
2018-06-01T00:22:38.342Z,44.93
2018-06-01T00:23:38.334Z,44.65
2018-06-01T00:24:38.332Z,46.95
2018-06-01T00:25:38.333Z,45.42
2018-06-01T00:26:38.325Z,46.19
2018-06-01T00:27:38.323Z,44.93
2018-06-01T00:28:38.319Z,46.28
2018-06-01T00:29:38.313Z,45.22
2018-06-01T00:30:38.315Z,45.22
2018-06-01T00:31:38.309Z,46.28
2018-06-01T00:32:38.306Z,46.47
2018-06-01T00:33:38.303Z,46.38
2018-06-01T00:34:38.295Z,45.90
2018-06-01T00:35:38.299Z,45.42
2018-06-01T00:36:38.292Z,44.93
2018-06-01T00:37:38.286Z,45.13
2018-06-01T00:38:38.285Z,44.65
2018-06-01T00:39:38.285Z,44.07
2018-06-01T00:40:38.282Z,44.45
2018-06-01T00:41:38.276Z,45.49
2018-06-01T00:42:38.270Z,44.93
2018-06-01T00:43:38.266Z,41.95
2018-06-01T00:44:38.268Z,42.50
2018-06-01T00:45:38.259Z,42.60
2018-06-01T00:46:38.257Z,43.28
2018-06-01T00:47:38.251Z,43.76
2018-06-01T00:48:38.251Z,43.85
2018-06-01T00:49:38.246Z,43.57
2018-06-01T00:50:38.243Z,43.76
2018-06-01T00:51:38.239Z,42.60
2018-06-01T00:52:38.237Z,43.66
2018-06-01T00:53:38.232Z,43.76
2018-06-01T00:54:38.227Z,44.72
2018-06-01T00:55:38.225Z,43.37
2018-06-01T00:56:38.222Z,43.76
2018-06-01T00:57:38.217Z,44.14
2018-06-01T00:58:38.215Z,43.85
2018-06-01T00:59:38.217Z,44.72
2018-06-01T01:00:38.207Z,44.62
2018-06-01T01:01:38.210Z,44.91
2018-06-01T01:02:38.201Z,44.53
2018-06-01T01:03:38.203Z,45.10
2018-06-01T01:04:38.190Z,43.76
2018-06-01T01:05:38.189Z,44.82
2018-06-01T01:06:38.183Z,44.53
2018-06-01T01:07:38.188Z,43.66
2018-06-01T01:08:38.185Z,43.76
2018-06-01T01:09:38.178Z,44.24
2018-06-01T01:10:38.169Z,43.47
2018-06-01T01:11:38.167Z,43.76
2018-06-01T01:12:38.174Z,42.89
2018-06-01T01:13:38.170Z,43.47
2018-06-01T01:14:38.158Z,44.91
2018-06-01T01:15:38.159Z,44.62
2018-06-01T01:16:38.149Z,43.08
2018-06-01T01:17:38.150Z,43.76
2018-06-01T01:18:38.153Z,43.66
2018-06-01T01:19:38.142Z,43.47
2018-06-01T01:20:38.141Z,42.22
2018-06-01T01:21:38.132Z,43.47
2018-06-01T01:22:38.129Z,43.57
2018-06-01T01:23:38.125Z,43.08
2018-06-01T01:24:38.143Z,42.41
2018-06-01T01:25:38.119Z,42.70
2018-06-01T01:26:38.113Z,43.28
2018-06-01T01:27:38.112Z,42.70
2018-06-01T01:28:38.108Z,43.66
2018-06-01T01:29:38.107Z,43.47
2018-06-01T01:30:38.100Z,43.76
2018-06-01T01:31:38.097Z,43.85
2018-06-01T01:32:38.094Z,42.41
2018-06-01T01:33:38.084Z,43.85
2018-06-01T01:34:38.091Z,43.08
2018-06-01T01:35:38.083Z,42.89
2018-06-01T01:36:38.079Z,43.66
2018-06-01T01:37:38.080Z,44.24
2018-06-01T01:38:38.071Z,43.85
2018-06-01T01:39:38.068Z,43.66
2018-06-01T01:40:38.070Z,42.70
2018-06-01T01:41:38.060Z,43.57
2018-06-01T01:42:38.056Z,43.47
2018-06-01T01:43:38.054Z,43.76
2018-06-01T01:44:38.051Z,43.37
2018-06-01T01:45:38.044Z,43.45
2018-06-01T01:46:38.041Z,43.54
2018-06-01T01:47:38.038Z,42.89
2018-06-01T01:48:38.042Z,42.49
2018-06-01T01:49:38.031Z,43.57
2018-06-01T01:50:38.027Z,42.41
2018-06-01T01:51:38.024Z,42.70
2018-06-01T01:52:38.022Z,42.50
2018-06-01T01:53:38.017Z,43.45
2018-06-01T01:54:38.016Z,43.37
2018-06-01T01:55:38.007Z,43.57
2018-06-01T01:56:38.009Z,43.18
2018-06-01T01:57:38.004Z,43.64
2018-06-01T01:58:38.001Z,43.66
2018-06-01T01:59:37.997Z,43.37
2018-06-01T02:00:37.995Z,43.28
2018-06-01T02:01:37.991Z,43.37
2018-06-01T02:02:37.984Z,43.57
2018-06-01T02:03:37.981Z,43.26
2018-06-01T02:04:37.973Z,42.89
2018-06-01T02:05:37.973Z,43.74
2018-06-01T02:06:37.972Z,43.37
2018-06-01T02:07:37.966Z,42.50
2018-06-01T02:08:37.962Z,43.07
2018-06-01T02:09:37.960Z,43.64
2018-06-01T02:10:37.961Z,43.35
2018-06-01T02:11:37.948Z,42.89
2018-06-01T02:12:37.945Z,42.97
2018-06-01T02:13:37.955Z,42.97
2018-06-01T02:14:37.936Z,42.49
2018-06-01T02:15:37.967Z,42.97
2018-06-01T02:16:37.947Z,42.39
2018-06-01T02:17:37.940Z,42.68
2018-06-01T02:18:37.931Z,42.68
2018-06-01T02:19:37.924Z,42.30
2018-06-01T02:20:37.922Z,42.77
2018-06-01T02:21:37.925Z,41.82
2018-06-01T02:22:37.939Z,41.62
2018-06-01T02:23:37.907Z,41.62
2018-06-01T02:24:37.905Z,41.14
2018-06-01T02:25:37.906Z,41.43
2018-06-01T02:26:37.909Z,41.62
2018-06-01T02:27:37.898Z,41.33
2018-06-01T02:28:37.892Z,40.85
2018-06-01T02:29:37.903Z,40.95
2018-06-01T02:30:37.895Z,41.05
2018-06-01T02:31:37.893Z,40.08
2018-06-01T02:32:37.906Z,41.05
2018-06-01T02:33:37.876Z,40.66
2018-06-01T02:34:37.869Z,40.76
2018-06-01T02:35:37.880Z,40.28
2018-06-01T02:36:37.870Z,40.28
2018-06-01T02:37:37.859Z,39.99
2018-06-01T02:38:37.852Z,40.28
2018-06-01T02:39:37.847Z,40.18
2018-06-01T02:40:37.845Z,40.28
2018-06-01T02:41:38.562Z,40.28
2018-06-01T02:42:37.842Z,39.99
2018-06-01T02:43:37.837Z,40.66
2018-06-01T02:44:37.831Z,40.08
2018-06-01T02:45:37.829Z,40.85
2018-06-01T02:46:37.824Z,40.85
2018-06-01T02:47:37.820Z,40.66
2018-06-01T02:48:37.818Z,40.76
2018-06-01T02:49:37.816Z,40.56
2018-06-01T02:50:37.811Z,40.85
2018-06-01T02:51:37.802Z,39.79
2018-06-01T02:52:37.800Z,40.76
2018-06-01T02:53:37.799Z,40.76
2018-06-01T02:54:37.797Z,40.76
2018-06-01T02:55:37.789Z,40.85
2018-06-01T02:56:37.785Z,39.79
2018-06-01T02:57:37.780Z,40.76
2018-06-01T02:58:37.785Z,40.18
2018-06-01T02:59:37.776Z,40.08
2018-06-01T03:00:37.768Z,39.89
2018-06-01T03:01:37.767Z,39.79
2018-06-01T03:02:37.763Z,40.56
2018-06-01T03:03:37.760Z,39.51
2018-06-01T03:04:37.755Z,39.41
2018-06-01T03:05:37.752Z,39.61
2018-06-01T03:06:37.749Z,40.76
2018-06-01T03:07:37.745Z,39.79
2018-06-01T03:08:37.743Z,39.41
2018-06-01T03:09:37.737Z,40.28
2018-06-01T03:10:37.730Z,40.28
2018-06-01T03:11:37.729Z,39.79
2018-06-01T03:12:37.724Z,40.28
2018-06-01T03:13:37.723Z,39.79
2018-06-01T03:14:37.718Z,40.28
2018-06-01T03:15:37.715Z,40.28
2018-06-01T03:16:37.710Z,40.76
2018-06-01T03:17:37.705Z,40.18
2018-06-01T03:18:37.708Z,41.33
2018-06-01T03:19:37.694Z,40.95
2018-06-01T03:20:37.694Z,41.05
2018-06-01T03:21:37.692Z,41.24
2018-06-01T03:22:37.686Z,40.56
2018-06-01T03:23:37.681Z,42.97
2018-06-01T03:24:37.681Z,41.72
2018-06-01T03:25:37.678Z,40.56
2018-06-01T03:26:37.680Z,40.28
2018-06-01T03:27:37.669Z,41.24
2018-06-01T03:28:37.667Z,41.91
2018-06-01T03:29:37.667Z,42.97
2018-06-01T03:30:37.653Z,41.53
2018-06-01T03:31:37.652Z,43.54
2018-06-01T03:32:37.649Z,43.16
2018-06-01T03:33:37.645Z,43.57
2018-06-01T03:34:37.644Z,43.76
2018-06-01T03:35:37.639Z,43.66
2018-06-01T03:36:37.636Z,42.50
2018-06-01T03:37:37.638Z,40.88
2018-06-01T03:38:37.622Z,42.00
2018-06-01T03:39:37.623Z,42.39
2018-06-01T03:40:37.624Z,42.99
2018-06-01T03:41:37.614Z,42.70
2018-06-01T03:42:38.589Z,42.10
2018-06-01T03:43:37.611Z,42.77
2018-06-01T03:44:37.611Z,42.12
2018-06-01T03:45:37.605Z,43.66
2018-06-01T03:46:37.599Z,42.50
2018-06-01T03:47:37.603Z,43.57
2018-06-01T03:48:37.590Z,43.76
2018-06-01T03:49:37.590Z,43.37
2018-06-01T03:50:37.583Z,42.99
2018-06-01T03:51:37.583Z,46.55
2018-06-01T03:52:37.577Z,44.05
2018-06-01T03:53:37.574Z,45.20
2018-06-01T03:54:37.573Z,45.10
2018-06-01T03:55:37.568Z,45.78
2018-06-01T03:56:37.565Z,45.97
2018-06-01T03:57:37.559Z,45.39
2018-06-01T03:58:37.553Z,45.49
2018-06-01T03:59:37.554Z,46.36
2018-06-01T04:00:37.545Z,48.47
2018-06-01T04:01:37.544Z,47.63
2018-06-01T04:02:37.542Z,48.49
2018-06-01T04:03:37.539Z,47.72
2018-06-01T04:04:37.537Z,49.27
2018-06-01T04:05:37.529Z,49.07
2018-06-01T04:06:37.531Z,48.69
2018-06-01T04:07:37.534Z,50.32
2018-06-01T04:08:37.519Z,49.65
2018-06-01T04:09:37.520Z,49.17
2018-06-01T04:10:37.521Z,50.32
2018-06-01T04:11:37.510Z,49.94
2018-06-01T04:12:37.508Z,51.67
2018-06-01T04:13:37.503Z,50.45
2018-06-01T04:14:37.504Z,50.35
2018-06-01T04:15:37.501Z,49.29
2018-06-01T04:16:37.496Z,50.45
2018-06-01T04:17:37.511Z,50.45
2018-06-01T04:18:37.483Z,51.21
2018-06-01T04:19:37.483Z,50.54
2018-06-01T04:20:37.475Z,50.73
2018-06-01T04:21:37.484Z,50.45
2018-06-01T04:22:37.474Z,49.00
2018-06-01T04:23:37.473Z,51.79
2018-06-01T04:24:37.467Z,51.12
2018-06-01T04:25:37.464Z,50.83
2018-06-01T04:26:37.472Z,51.12
2018-06-01T04:27:37.513Z,51.41
2018-06-01T04:28:37.461Z,50.63
2018-06-01T04:29:37.452Z,51.09
2018-06-01T04:30:37.449Z,49.68
2018-06-01T04:31:37.451Z,51.60
2018-06-01T04:32:37.444Z,50.45
2018-06-01T04:33:37.438Z,50.25
2018-06-01T04:34:37.439Z,48.90
2018-06-01T04:35:37.436Z,51.70
2018-06-01T04:36:37.430Z,48.52
2018-06-01T04:37:37.428Z,50.83
2018-06-01T04:38:37.421Z,49.00
2018-06-01T04:39:37.424Z,49.38
2018-06-01T04:40:37.423Z,48.61
2018-06-01T04:41:37.416Z,49.29
2018-06-01T04:42:37.411Z,47.92
2018-06-01T04:43:37.409Z,46.86
2018-06-01T04:44:37.407Z,50.23
2018-06-01T04:45:37.402Z,48.69
2018-06-01T04:46:37.400Z,47.34
2018-06-01T04:47:37.400Z,49.27
2018-06-01T04:48:37.396Z,46.19
2018-06-01T04:49:37.399Z,45.73
2018-06-01T04:50:37.390Z,47.08
2018-06-01T04:51:37.385Z,47.85
2018-06-01T04:52:37.384Z,48.52
2018-06-01T04:53:37.383Z,46.40
2018-06-01T04:54:37.377Z,48.71
2018-06-01T04:55:37.376Z,50.06
2018-06-01T04:56:37.374Z,49.38
2018-06-01T04:57:37.371Z,48.90
2018-06-01T04:58:37.367Z,49.58
2018-06-01T04:59:37.369Z,50.25
2018-06-01T05:00:37.361Z,50.83
2018-06-01T05:01:37.359Z,47.27
2018-06-01T05:02:37.358Z,48.52
2018-06-01T05:03:37.355Z,50.15
2018-06-01T05:04:37.352Z,57.40
2018-06-01T05:05:37.351Z,51.62
2018-06-01T05:06:37.347Z,55.00
2018-06-01T05:07:37.347Z,52.40
2018-06-01T05:08:37.344Z,53.55
2018-06-01T05:09:37.341Z,54.22
2018-06-01T05:10:37.337Z,55.09
2018-06-01T05:11:37.334Z,56.73
2018-06-01T05:12:37.334Z,55.38
2018-06-01T05:13:37.330Z,55.87
2018-06-01T05:14:37.334Z,51.34
2018-06-01T05:15:37.326Z,54.13
2018-06-01T05:16:37.356Z,53.55
2018-06-01T05:17:37.321Z,55.67
2018-06-01T05:18:37.318Z,55.87
2018-06-01T05:19:37.318Z,53.17
2018-06-01T05:20:37.310Z,55.96
2018-06-01T05:21:37.309Z,56.73
2018-06-01T05:22:37.309Z,54.13
2018-06-01T05:23:37.312Z,57.69
2018-06-01T05:24:37.305Z,60.13
2018-06-01T05:25:37.311Z,59.75
2018-06-01T05:26:37.304Z,60.71
2018-06-01T05:27:37.298Z,60.52
2018-06-01T05:28:37.295Z,60.52
2018-06-01T05:29:37.293Z,61.19
2018-06-01T05:30:37.292Z,61.29
2018-06-01T05:31:37.290Z,60.52
2018-06-01T05:32:37.287Z,63.70
2018-06-01T05:33:37.285Z,63.79
2018-06-01T05:34:37.282Z,63.98
2018-06-01T05:35:37.279Z,63.89
2018-06-01T05:36:37.279Z,63.79
2018-06-01T05:37:37.275Z,63.98
2018-06-01T05:38:37.276Z,63.79
2018-06-01T05:39:37.275Z,64.47
2018-06-01T05:40:37.272Z,64.18
2018-06-01T05:41:37.294Z,64.37
2018-06-01T05:42:37.263Z,63.79
2018-06-01T05:43:37.259Z,63.79
2018-06-01T05:44:37.260Z,63.79
2018-06-01T05:45:37.268Z,56.85
2018-06-01T05:46:37.256Z,58.59
2018-06-01T05:47:37.253Z,62.93
2018-06-01T05:48:37.251Z,63.89
2018-06-01T05:49:37.249Z,64.18
2018-06-01T05:50:37.252Z,64.76
2018-06-01T05:51:37.244Z,65.24
2018-06-01T05:52:37.245Z,64.66
2018-06-01T05:53:37.244Z,64.56
2018-06-01T05:54:37.231Z,61.87
2018-06-01T05:55:37.234Z,64.28
2018-06-01T05:56:37.244Z,62.25
2018-06-01T05:57:37.233Z,61.68
2018-06-01T05:58:37.230Z,62.15
2018-06-01T05:59:37.228Z,61.22
2018-06-01T06:00:37.223Z,62.06
2018-06-01T06:01:37.225Z,63.50
2018-06-01T06:02:37.221Z,61.96
2018-06-01T06:03:37.218Z,64.11
2018-06-01T06:04:37.275Z,63.06
2018-06-01T06:05:37.211Z,61.99
2018-06-01T06:06:37.212Z,61.71
2018-06-01T06:07:37.212Z,61.99
2018-06-01T06:08:37.210Z,55.82
2018-06-01T06:09:37.208Z,62.76
2018-06-01T06:10:37.221Z,62.09
2018-06-01T06:11:37.206Z,60.93
2018-06-01T06:12:37.202Z,60.35
2018-06-01T06:13:37.259Z,60.55
2018-06-01T06:14:37.199Z,58.14
2018-06-01T06:15:37.197Z,60.16
2018-06-01T06:16:37.203Z,57.75
2018-06-01T06:17:37.191Z,56.69
2018-06-01T06:18:37.216Z,57.56
2018-06-01T06:19:37.191Z,60.83
2018-06-01T06:20:37.186Z,61.71
2018-06-01T06:21:37.188Z,59.10
2018-06-01T06:22:37.189Z,56.88
2018-06-01T06:23:37.185Z,62.76
2018-06-01T06:24:37.183Z,66.43
2018-06-01T06:25:37.218Z,67.30
2018-06-01T06:26:37.180Z,66.56
2018-06-01T06:27:37.178Z,65.20
2018-06-01T06:28:37.182Z,65.98
2018-06-01T06:29:37.172Z,62.79
2018-06-01T06:30:37.171Z,64.72
2018-06-01T06:31:37.173Z,66.75
2018-06-01T06:32:37.170Z,70.03
2018-06-01T06:33:37.174Z,67.43
2018-06-01T06:34:37.171Z,70.45
2018-06-01T06:35:37.171Z,70.54
2018-06-01T06:36:37.170Z,60.03
2018-06-01T06:37:37.227Z,65.82
2018-06-01T06:38:37.168Z,64.31
2018-06-01T06:39:37.166Z,67.30
2018-06-01T06:40:37.166Z,67.49
2018-06-01T06:41:37.180Z,66.24
2018-06-01T06:42:37.185Z,59.70
2018-06-01T06:43:37.163Z,61.25
2018-06-01T06:44:37.165Z,68.62
2018-06-01T06:45:37.167Z,63.40
2018-06-01T06:46:37.174Z,63.69
2018-06-01T06:47:37.165Z,69.10
2018-06-01T06:48:37.171Z,66.14
2018-06-01T06:49:37.169Z,67.11
2018-06-01T06:50:37.171Z,82.48
2018-06-01T06:51:37.172Z,77.94
2018-06-01T06:52:37.175Z,68.75
2018-06-01T06:53:37.177Z,72.33
2018-06-01T06:54:37.177Z,67.53
2018-06-01T06:55:37.179Z,63.73
2018-06-01T06:56:37.187Z,74.94
2018-06-01T06:57:37.185Z,69.04
2018-06-01T06:58:37.189Z,72.08
2018-06-01T06:59:37.189Z,70.34
2018-06-01T07:00:37.196Z,70.24
2018-06-01T07:01:37.195Z,67.33
2018-06-01T07:02:37.199Z,73.91
2018-06-01T07:03:37.195Z,74.11
2018-06-01T07:04:37.200Z,66.20
2018-06-01T07:05:37.199Z,67.37
2018-06-01T07:06:37.205Z,74.34
2018-06-01T07:07:37.214Z,73.18
2018-06-01T07:08:37.208Z,69.50
2018-06-01T07:09:37.211Z,67.85
2018-06-01T07:10:37.247Z,65.14
2018-06-01T07:11:37.218Z,77.34
2018-06-01T07:12:37.223Z,68.43
2018-06-01T07:13:37.226Z,65.63
2018-06-01T07:14:37.230Z,74.05
2018-06-01T07:15:37.234Z,75.85
2018-06-01T07:16:37.236Z,69.37
2018-06-01T07:17:37.255Z,73.72
2018-06-01T07:18:37.243Z,67.05
2018-06-01T07:19:37.243Z,62.88
2018-06-01T07:20:37.247Z,70.92
2018-06-01T07:21:37.252Z,68.40
2018-06-01T07:22:37.302Z,66.37
2018-06-01T07:23:37.257Z,72.52
2018-06-01T07:24:37.258Z,74.94
2018-06-01T07:25:37.262Z,73.01
2018-06-01T07:26:37.263Z,65.66
2018-06-01T07:27:37.296Z,74.90
2018-06-01T07:28:37.268Z,67.56
2018-06-01T07:29:37.269Z,65.24
2018-06-01T07:30:37.274Z,65.43
2018-06-01T07:31:37.275Z,70.84
2018-06-01T07:32:37.272Z,64.66
2018-06-01T07:33:37.280Z,65.82
2018-06-01T07:34:37.280Z,68.43
2018-06-01T07:35:37.284Z,64.37
2018-06-01T07:36:37.278Z,69.10
2018-06-01T07:37:37.300Z,64.34
2018-06-01T07:38:37.284Z,66.98
2018-06-01T07:39:37.287Z,70.32
2018-06-01T07:40:37.303Z,71.20
2018-06-01T07:41:37.301Z,70.72
2018-06-01T07:42:37.295Z,72.94
2018-06-01T07:43:37.289Z,69.84
2018-06-01T07:44:37.311Z,71.78
2018-06-01T07:45:37.309Z,70.14
2018-06-01T07:46:37.287Z,66.72
2018-06-01T07:47:37.291Z,67.88
2018-06-01T07:48:37.289Z,67.49
2018-06-01T07:49:37.293Z,68.46
2018-06-01T07:50:37.299Z,67.11
2018-06-01T07:51:37.293Z,68.75
2018-06-01T07:52:37.312Z,68.75
2018-06-01T07:53:37.296Z,69.71
2018-06-01T07:54:37.311Z,68.84
2018-06-01T07:55:37.308Z,66.20
2018-06-01T07:56:37.291Z,65.53
2018-06-01T07:57:37.291Z,65.34
2018-06-01T07:58:37.288Z,64.28
2018-06-01T07:59:37.286Z,62.15
2018-06-01T08:00:37.285Z,61.83
2018-06-01T08:01:37.286Z,60.28
2018-06-01T08:02:37.287Z,60.86
2018-06-01T08:03:37.315Z,59.13
2018-06-01T08:04:37.295Z,59.87
2018-06-01T08:05:37.287Z,59.30
2018-06-01T08:06:37.286Z,57.27
2018-06-01T08:07:37.281Z,56.79
2018-06-01T08:08:37.282Z,56.76
2018-06-01T08:09:37.281Z,56.18
2018-06-01T08:10:37.278Z,56.37
2018-06-01T08:11:37.281Z,56.76
2018-06-01T08:12:37.270Z,54.28
2018-06-01T08:13:37.274Z,54.66
2018-06-01T08:14:37.311Z,57.27
2018-06-01T08:15:37.264Z,56.21
2018-06-01T08:16:37.280Z,56.49
2018-06-01T08:17:37.260Z,56.69
2018-06-01T08:18:37.318Z,56.66
2018-06-01T08:19:37.263Z,56.27
2018-06-01T08:20:37.258Z,56.27
2018-06-01T08:21:37.252Z,54.64
2018-06-01T08:22:37.252Z,56.09
2018-06-01T08:23:37.254Z,55.89
2018-06-01T08:24:37.247Z,55.31
2018-06-01T08:25:37.244Z,54.16
2018-06-01T08:26:37.239Z,55.22
2018-06-01T08:27:37.241Z,56.76
2018-06-01T08:28:37.241Z,56.09
2018-06-01T08:29:37.236Z,55.31
2018-06-01T08:30:37.234Z,56.66
2018-06-01T08:31:37.230Z,54.83
2018-06-01T08:32:37.240Z,56.47
2018-06-01T08:33:37.227Z,54.93
2018-06-01T08:34:37.226Z,55.02
2018-06-01T08:35:37.220Z,56.57
2018-06-01T08:36:37.219Z,53.87
2018-06-01T08:37:37.215Z,55.22
2018-06-01T08:38:37.213Z,55.02
2018-06-01T08:39:37.217Z,55.89
2018-06-01T08:40:37.213Z,54.25
2018-06-01T08:41:37.205Z,55.60
2018-06-01T08:42:37.204Z,56.27
2018-06-01T08:43:37.201Z,53.29
2018-06-01T08:44:37.201Z,53.77
2018-06-01T08:45:37.196Z,52.61
2018-06-01T08:46:37.250Z,52.04
2018-06-01T08:47:37.192Z,50.21
2018-06-01T08:48:37.188Z,51.56
2018-06-01T08:49:37.184Z,48.86
2018-06-01T08:50:37.183Z,48.38
2018-06-01T08:51:37.182Z,47.70
2018-06-01T08:52:37.178Z,44.98
2018-06-01T08:53:37.175Z,42.19
2018-06-01T08:54:37.172Z,43.05
2018-06-01T08:55:37.174Z,42.09
2018-06-01T08:56:37.174Z,41.89
2018-06-01T08:57:37.167Z,41.89
2018-06-01T08:58:37.160Z,43.73
2018-06-01T08:59:37.170Z,43.15
2018-06-01T09:00:37.170Z,37.95
2018-06-01T09:01:37.153Z,45.36
2018-06-01T09:02:37.155Z,41.88
2018-06-01T09:03:37.154Z,40.53
2018-06-01T09:04:37.234Z,36.58
2018-06-01T09:05:37.150Z,38.41
2018-06-01T09:06:37.145Z,36.58
2018-06-01T09:07:37.137Z,38.89
2018-06-01T09:08:37.135Z,36.39
2018-06-01T09:09:37.145Z,34.75
2018-06-01T09:10:37.127Z,34.75
2018-06-01T09:11:37.128Z,37.45
2018-06-01T09:12:37.121Z,35.91
2018-06-01T09:13:37.120Z,34.75
2018-06-01T09:14:37.131Z,36.10
2018-06-01T09:15:37.112Z,35.42
2018-06-01T09:16:37.183Z,31.77
2018-06-01T09:17:37.110Z,27.92
2018-06-01T09:18:37.113Z,22.42
2018-06-01T09:19:37.103Z,21.55
2018-06-01T09:20:37.100Z,21.45
2018-06-01T09:21:37.111Z,20.20
2018-06-01T09:22:37.091Z,19.34
2018-06-01T09:23:37.088Z,18.76
2018-06-01T09:24:37.086Z,17.99
2018-06-01T09:25:37.078Z,17.51
2018-06-01T09:26:37.079Z,17.22
2018-06-01T09:27:37.077Z,16.26
2018-06-01T09:28:37.070Z,16.16
2018-06-01T09:29:37.064Z,15.88
2018-06-01T09:30:37.073Z,15.78
2018-06-01T09:31:37.065Z,15.78
2018-06-01T09:32:37.063Z,16.16
2018-06-01T09:33:37.067Z,15.67
2018-06-01T09:34:37.051Z,15.48
2018-06-01T09:35:37.046Z,15.48
2018-06-01T09:36:37.043Z,15.00
2018-06-01T09:37:37.037Z,15.19
2018-06-01T09:38:37.036Z,15.09
2018-06-01T09:39:37.033Z,15.29
2018-06-01T09:40:37.026Z,15.19
2018-06-01T09:41:37.023Z,14.90
2018-06-01T09:42:37.025Z,15.29
2018-06-01T09:43:37.019Z,15.19
2018-06-01T09:44:37.027Z,14.81
2018-06-01T09:45:37.007Z,14.90
2018-06-01T09:46:37.893Z,14.81
2018-06-01T09:47:37.004Z,14.71
2018-06-01T09:48:37.002Z,14.52
2018-06-01T09:49:36.996Z,14.52
2018-06-01T09:50:36.993Z,15.29
2018-06-01T09:51:36.994Z,15.00
2018-06-01T09:52:36.987Z,15.09
2018-06-01T09:53:36.984Z,15.19
2018-06-01T09:54:36.978Z,14.90
2018-06-01T09:55:36.977Z,15.96
2018-06-01T09:56:36.968Z,15.77
2018-06-01T09:57:36.965Z,15.67
2018-06-01T09:58:36.969Z,15.09
2018-06-01T09:59:36.958Z,15.00
2018-06-01T10:00:36.957Z,15.29
2018-06-01T10:01:36.956Z,15.09
2018-06-01T10:02:36.959Z,14.90
2018-06-01T10:03:36.958Z,14.71
2018-06-01T10:04:36.950Z,15.00
2018-06-01T10:05:36.939Z,14.52
2018-06-01T10:06:37.793Z,14.71
2018-06-01T10:07:36.932Z,14.52
2018-06-01T10:08:36.930Z,14.52
2018-06-01T10:09:36.924Z,14.90
2018-06-01T10:10:36.920Z,14.52
2018-06-01T10:11:36.920Z,14.04
2018-06-01T10:12:36.915Z,14.04
2018-06-01T10:13:36.913Z,14.42
2018-06-01T10:14:36.911Z,14.03
2018-06-01T10:15:36.933Z,13.65
2018-06-01T10:16:36.906Z,14.23
2018-06-01T10:17:36.898Z,14.32
2018-06-01T10:18:36.899Z,14.62
2018-06-01T10:19:36.906Z,14.52
2018-06-01T10:20:36.893Z,14.23
2018-06-01T10:21:36.894Z,14.81
2018-06-01T10:22:36.885Z,14.91
2018-06-01T10:23:36.883Z,14.81
2018-06-01T10:24:36.884Z,14.81
2018-06-01T10:25:36.879Z,15.11
2018-06-01T10:26:36.877Z,14.72
2018-06-01T10:27:36.870Z,14.81
2018-06-01T10:28:36.869Z,15.01
2018-06-01T10:29:36.868Z,15.01
2018-06-01T10:30:36.862Z,14.72
2018-06-01T10:31:36.866Z,15.11
2018-06-01T10:32:36.860Z,14.04
2018-06-01T10:33:36.855Z,13.95
2018-06-01T10:34:36.853Z,13.85
2018-06-01T10:35:36.852Z,13.28
2018-06-01T10:36:36.849Z,13.09
2018-06-01T10:37:36.848Z,13.18
2018-06-01T10:38:36.840Z,13.28
2018-06-01T10:39:36.896Z,13.28
2018-06-01T10:40:36.836Z,13.67
2018-06-01T10:41:36.837Z,13.96
2018-06-01T10:42:36.839Z,13.67
2018-06-01T10:43:36.834Z,13.77
2018-06-01T10:44:36.831Z,13.48
2018-06-01T10:45:36.830Z,12.81
2018-06-01T10:46:36.825Z,13.48
2018-06-01T10:47:36.825Z,13.29
2018-06-01T10:48:36.827Z,13.39
2018-06-01T10:49:36.880Z,13.10
2018-06-01T10:50:36.822Z,13.20
2018-06-01T10:51:36.830Z,11.75
2018-06-01T10:52:36.824Z,10.89
2018-06-01T10:53:36.820Z,11.86
2018-06-01T10:54:36.821Z,12.92
2018-06-01T10:55:36.825Z,13.02
2018-06-01T10:56:36.823Z,12.84
2018-06-01T10:57:36.831Z,12.64
2018-06-01T10:58:36.827Z,11.68
2018-06-01T10:59:36.839Z,10.62
2018-06-01T11:00:36.840Z,9.17
2018-06-01T11:01:36.838Z,10.90
2018-06-01T11:02:36.830Z,11.68
2018-06-01T11:03:36.833Z,8.50
2018-06-01T11:04:36.836Z,7.43
2018-06-01T11:05:36.839Z,15.45
2018-06-01T11:06:36.851Z,7.53
2018-06-01T11:07:36.855Z,8.60
2018-06-01T11:08:36.851Z,14.01
2018-06-01T11:09:36.860Z,9.66
2018-06-01T11:10:36.858Z,7.25
2018-06-01T11:11:36.869Z,14.22
2018-06-01T11:12:36.867Z,20.79
2018-06-01T11:13:36.915Z,26.10
2018-06-01T11:14:36.878Z,40.32
2018-06-01T11:15:36.906Z,35.29
2018-06-01T11:16:36.890Z,26.88
2018-06-01T11:17:36.893Z,19.73
2018-06-01T11:18:36.902Z,28.25
2018-06-01T11:19:36.902Z,35.31
2018-06-01T11:20:36.915Z,28.25
2018-06-01T11:21:36.984Z,33.86
2018-06-01T11:22:36.920Z,25.63
2018-06-01T11:23:36.967Z,16.16
2018-06-01T11:24:36.935Z,28.75
2018-06-01T11:25:36.957Z,32.71
2018-06-01T11:26:36.945Z,40.94
2018-06-01T11:27:36.949Z,51.18
2018-06-01T11:28:36.958Z,35.31
2018-06-01T11:29:36.961Z,47.41
2018-06-01T11:30:36.969Z,45.28
2018-06-01T11:31:36.975Z,49.70
2018-06-01T11:32:36.986Z,40.71
2018-06-01T11:33:36.996Z,47.96
2018-06-01T11:34:36.997Z,50.84
2018-06-01T11:35:36.993Z,51.90
2018-06-01T11:36:36.997Z,49.49
2018-06-01T11:37:37.003Z,19.43
2018-06-01T11:38:37.001Z,32.20
2018-06-01T11:39:37.009Z,32.68
2018-06-01T11:40:37.018Z,22.54
2018-06-01T11:41:37.020Z,50.02
2018-06-01T11:42:37.026Z,39.78
2018-06-01T11:43:37.024Z,55.07
2018-06-01T11:44:37.031Z,52.63
2018-06-01T11:45:37.043Z,46.92
2018-06-01T11:46:37.040Z,56.98
2018-06-01T11:47:37.049Z,46.83
2018-06-01T11:48:37.050Z,57.86
2018-06-01T11:49:37.050Z,58.14
2018-06-01T11:50:37.056Z,59.18
2018-06-01T11:51:37.059Z,30.76
2018-06-01T11:52:37.064Z,46.83
2018-06-01T11:53:37.065Z,46.44
2018-06-01T11:54:39.869Z,58.14
2018-06-01T11:55:37.076Z,67.27
2018-06-01T11:56:37.079Z,54.98
2018-06-01T11:57:37.082Z,50.52
2018-06-01T11:58:37.086Z,63.31
2018-06-01T11:59:37.092Z,55.94
2018-06-01T12:00:37.094Z,55.73
2018-06-01T12:01:37.133Z,53.69
2018-06-01T12:02:37.105Z,59.11
2018-06-01T12:03:37.113Z,52.73
2018-06-01T12:04:37.109Z,56.57
2018-06-01T12:05:37.131Z,56.02
2018-06-01T12:06:37.113Z,54.85
2018-06-01T12:07:37.122Z,46.73
2018-06-01T12:08:37.124Z,53.11
2018-06-01T12:09:37.124Z,55.17
2018-06-01T12:10:37.174Z,59.14
2018-06-01T12:11:37.131Z,44.04
2018-06-01T12:12:37.134Z,51.68
2018-06-01T12:13:37.137Z,67.69
2018-06-01T12:14:37.140Z,70.18
2018-06-01T12:15:37.146Z,75.24
2018-06-01T12:16:37.149Z,73.60
2018-06-01T12:17:37.266Z,59.46
2018-06-01T12:18:37.156Z,60.52
2018-06-01T12:19:37.161Z,75.31
2018-06-01T12:20:37.164Z,73.79
2018-06-01T12:21:37.167Z,73.89
2018-06-01T12:22:37.178Z,68.85
2018-06-01T12:23:37.176Z,70.98
2018-06-01T12:24:37.186Z,73.15
2018-06-01T12:25:37.192Z,71.80
2018-06-01T12:26:37.199Z,59.23
2018-06-01T12:27:37.204Z,67.31
2018-06-01T12:28:37.211Z,61.32
2018-06-01T12:29:37.211Z,70.45
2018-06-01T12:30:37.225Z,85.57
2018-06-01T12:31:37.225Z,81.04
2018-06-01T12:32:37.230Z,78.38
2018-06-01T12:33:37.232Z,76.48
2018-06-01T12:34:37.244Z,81.73
2018-06-01T12:35:37.247Z,80.94
2018-06-01T12:36:37.267Z,68.02
2018-06-01T12:37:37.375Z,70.39
2018-06-01T12:38:37.275Z,71.03
2018-06-01T12:39:37.274Z,85.32
2018-06-01T12:40:37.283Z,80.27
2018-06-01T12:41:37.286Z,73.37
2018-06-01T12:42:37.290Z,80.66
2018-06-01T12:43:37.305Z,75.67
2018-06-01T12:44:37.309Z,73.82
2018-06-01T12:45:37.318Z,81.59
2018-06-01T12:46:37.323Z,67.11
2018-06-01T12:47:37.325Z,81.16
2018-06-01T12:48:37.345Z,81.41
2018-06-01T12:49:37.337Z,76.07
2018-06-01T12:50:37.354Z,80.69
2018-06-01T12:51:37.360Z,62.26
2018-06-01T12:52:37.363Z,70.41